Independence of the Seas — C6WW4 — position and weather

sailwx.info

Track history (hours):
 
Tides and Currents Weather Stations Pressure Air Temp Water Temp Dewpoint Dewpoint Depression Visibility Wind Speed Wind Dir Waves Ship Positions

Independence of the Seas

Last reported at 2020-Mar-31 10:55 UTC. Time now 2020-Apr-03 07:08 UTC.
Position N 26°34' W 079°40'.

Length 339 m; draft 9 m.

Type: Passenger vessel. MMSI: 309374000.

Date/timePositionNaut miles runAvg speedWind from/ knotsBaromVisibWave heightAir tempDewpointWater temp
2020-Mar-31 10:55N 26°34' W 079°40'3 3.7
2020-Mar-31 10:00N 26°31' W 079°41'2 3.8
2020-Mar-31 09:30N 26°29' W 079°42'4 3.7
2020-Mar-31 08:30N 26°26' W 079°43'4 3.7
2020-Mar-31 07:30N 26°22' W 079°43'4 3.6
2020-Mar-31 06:30N 26°18' W 079°43'5 3.6
2020-Mar-31 05:00N 26°13' W 079°44'2 3.6
2020-Mar-31 04:31N 26°11' W 079°44'4 3.5
2020-Mar-31 03:30N 26°08' W 079°43'14 5.7
2020-Mar-31 01:00N 26°07' W 079°59'5 3.4
2020-Mar-30 23:30N 26°06' W 080°04'3 1.4
2020-Mar-30 21:30N 26°05' W 080°07'0 0.0
2020-Mar-30 21:00N 26°05' W 080°07'0 0.0
2020-Mar-30 17:30N 26°05' W 080°07'0 0.0
2020-Mar-30 16:30N 26°05' W 080°07'0 0.0
2020-Mar-30 14:30N 26°05' W 080°07'0 0.0
2020-Mar-30 14:00N 26°05' W 080°07'0 0.0
2020-Mar-30 12:00N 26°05' W 080°07'0 0.2
2020-Mar-30 10:31N 26°06' W 080°07'20 9.9
2020-Mar-30 08:31N 25°55' W 079°49'815.5
2020-Mar-30 08:00N 25°47' W 079°47'3014.8
2020-Mar-30 06:00N 25°18' W 079°48'29 3.9
2020-Mar-29 22:30N 25°46' W 079°38'1010.2
2020-Mar-29 21:30N 25°55' W 079°34'1010.1
2020-Mar-29 20:30N 26°03' W 079°27'  
2020-Mar-26 21:28N 26°05' W 080°07'0 0.0
2020-Mar-26 20:58N 26°05' W 080°07'0 0.0
2020-Mar-26 17:58N 26°05' W 080°07'0 0.0
2020-Mar-26 17:28N 26°05' W 080°07'0 0.0
2020-Mar-26 14:58N 26°05' W 080°07'1 0.8
2020-Mar-26 13:30N 26°06' W 080°06'9 3.4
2020-Mar-26 11:00N 26°06' W 079°56'6 5.9
2020-Mar-26 10:00N 26°05' W 079°50'510.5
2020-Mar-26 09:30N 25°60' W 079°49'1912.9
2020-Mar-26 08:00N 25°40' W 079°47'612.7
2020-Mar-26 07:30N 25°34' W 079°47'713.6
2020-Mar-26 07:00N 25°27' W 079°47'713.8
2020-Mar-26 06:30N 25°20' W 079°47'814.1
2020-Mar-26 05:54N 25°13' W 079°51'614.9
2020-Mar-26 05:30N 25°08' W 079°55'1514.7
2020-Mar-26 04:30N 24°56' W 080°04'1612.5
2020-Mar-26 03:13N 24°40' W 080°04'55 7.9
2020-Mar-25 20:15N 25°28' W 079°35'40 8.4
2020-Mar-25 15:29N 26°06' W 079°22'  
2020-Mar-21 20:27N 25°56' W 079°31'8 8.6
2020-Mar-21 19:30N 25°55' W 079°40'14 9.1
2020-Mar-21 18:01N 26°07' W 079°35'5 9.1
2020-Mar-21 17:30N 26°12' W 079°33'6 6.4
2020-Mar-21 16:30N 26°18' W 079°36'3210.6
2020-Mar-21 13:30N 25°48' W 079°49'2613.1
2020-Mar-21 11:30N 25°22' W 079°51'  
Track history (hours):
 
Tides and Currents Weather Stations Pressure Air Temp Water Temp Dewpoint Dewpoint Depression Visibility Wind Speed Wind Dir Waves Ship Positions

Independence of the Seas

Last reported at 2020-Mar-31 10:55 UTC. Time now 2020-Apr-03 07:08 UTC.
Position N 26°34' W 079°40'.

Length 339 m; draft 9 m.

Type: Passenger vessel. MMSI: 309374000.

Date/timePositionNaut miles runAvg speedWind from/ knotsBaromVisibWave heightAir tempDewpointWater temp
2020-Mar-31 10:55N 26°34' W 079°40'3 3.7
2020-Mar-31 10:00N 26°31' W 079°41'2 3.8
2020-Mar-31 09:30N 26°29' W 079°42'4 3.7
2020-Mar-31 08:30N 26°26' W 079°43'4 3.7
2020-Mar-31 07:30N 26°22' W 079°43'4 3.6
2020-Mar-31 06:30N 26°18' W 079°43'5 3.6
2020-Mar-31 05:00N 26°13' W 079°44'2 3.6
2020-Mar-31 04:31N 26°11' W 079°44'4 3.5
2020-Mar-31 03:30N 26°08' W 079°43'14 5.7
2020-Mar-31 01:00N 26°07' W 079°59'5 3.4
2020-Mar-30 23:30N 26°06' W 080°04'3 1.4
2020-Mar-30 21:30N 26°05' W 080°07'0 0.0
2020-Mar-30 21:00N 26°05' W 080°07'0 0.0
2020-Mar-30 17:30N 26°05' W 080°07'0 0.0
2020-Mar-30 16:30N 26°05' W 080°07'0 0.0
2020-Mar-30 14:30N 26°05' W 080°07'0 0.0
2020-Mar-30 14:00N 26°05' W 080°07'0 0.0
2020-Mar-30 12:00N 26°05' W 080°07'0 0.2
2020-Mar-30 10:31N 26°06' W 080°07'20 9.9
2020-Mar-30 08:31N 25°55' W 079°49'815.5
2020-Mar-30 08:00N 25°47' W 079°47'3014.8
2020-Mar-30 06:00N 25°18' W 079°48'29 3.9
2020-Mar-29 22:30N 25°46' W 079°38'1010.2
2020-Mar-29 21:30N 25°55' W 079°34'1010.1
2020-Mar-29 20:30N 26°03' W 079°27'  
2020-Mar-26 21:28N 26°05' W 080°07'0 0.0
2020-Mar-26 20:58N 26°05' W 080°07'0 0.0
2020-Mar-26 17:58N 26°05' W 080°07'0 0.0
2020-Mar-26 17:28N 26°05' W 080°07'0 0.0
2020-Mar-26 14:58N 26°05' W 080°07'1 0.8
2020-Mar-26 13:30N 26°06' W 080°06'9 3.4
2020-Mar-26 11:00N 26°06' W 079°56'6 5.9
2020-Mar-26 10:00N 26°05' W 079°50'510.5
2020-Mar-26 09:30N 25°60' W 079°49'1912.9
2020-Mar-26 08:00N 25°40' W 079°47'612.7
2020-Mar-26 07:30N 25°34' W 079°47'713.6
2020-Mar-26 07:00N 25°27' W 079°47'713.8
2020-Mar-26 06:30N 25°20' W 079°47'814.1
2020-Mar-26 05:54N 25°13' W 079°51'614.9
2020-Mar-26 05:30N 25°08' W 079°55'1514.7
2020-Mar-26 04:30N 24°56' W 080°04'1612.5
2020-Mar-26 03:13N 24°40' W 080°04'55 7.9
2020-Mar-25 20:15N 25°28' W 079°35'40 8.4
2020-Mar-25 15:29N 26°06' W 079°22'  
2020-Mar-21 20:27N 25°56' W 079°31'8 8.6
2020-Mar-21 19:30N 25°55' W 079°40'14 9.1
2020-Mar-21 18:01N 26°07' W 079°35'5 9.1
2020-Mar-21 17:30N 26°12' W 079°33'6 6.4
2020-Mar-21 16:30N 26°18' W 079°36'3210.6
2020-Mar-21 13:30N 25°48' W 079°49'2613.1
2020-Mar-21 11:30N 25°22' W 079°51'  

Dump ship's entire track history